createdAt,value
2022-11-05T00:02:24.000Z,8.31
2022-11-05T00:07:24.000Z,6.89
2022-11-05T00:12:24.000Z,6.68
2022-11-05T00:17:24.000Z,7.15
2022-11-05T00:22:24.000Z,6.95
2022-11-05T00:27:25.000Z,6.3
2022-11-05T00:32:24.000Z,6.3
2022-11-05T00:37:25.000Z,6.62
2022-11-05T00:42:25.000Z,6.24
2022-11-05T00:47:23.000Z,6.3
2022-11-05T00:52:24.000Z,6.39
2022-11-05T01:02:24.000Z,6.53
2022-11-05T01:07:25.000Z,6
2022-11-05T01:12:24.000Z,7.9
2022-11-05T01:17:24.000Z,6.5
2022-11-05T01:22:25.000Z,6.3
2022-11-05T01:32:25.000Z,6.49
2022-11-05T01:37:24.000Z,6.14
2022-11-05T01:42:25.000Z,6.31
2022-11-05T01:47:24.000Z,6.54
2022-11-05T01:52:24.000Z,6.92
2022-11-05T01:57:24.000Z,6.78
2022-11-05T02:02:24.000Z,6.78
2022-11-05T02:07:24.000Z,7.3
2022-11-05T02:12:25.000Z,6.89
2022-11-05T02:17:24.000Z,7.07
2022-11-05T02:22:25.000Z,7.04
2022-11-05T02:27:24.000Z,7.78
2022-11-05T02:32:24.000Z,6.99
2022-11-05T02:37:24.000Z,7.86
2022-11-05T02:42:25.000Z,7.23
2022-11-05T02:47:24.000Z,7.37
2022-11-05T02:57:25.000Z,7.18
2022-11-05T03:02:24.000Z,7.22
2022-11-05T03:07:25.000Z,7.43
2022-11-05T03:12:24.000Z,7.7
2022-11-05T03:17:24.000Z,7.45
2022-11-05T03:22:24.000Z,7.72
2022-11-05T03:27:25.000Z,7.59
2022-11-05T03:32:24.000Z,7.78
2022-11-05T03:37:24.000Z,7.95
2022-11-05T03:42:25.000Z,8.71
2022-11-05T03:47:25.000Z,8.74
2022-11-05T03:52:25.000Z,7.98
2022-11-05T03:57:25.000Z,8.49
2022-11-05T04:02:24.000Z,7.75
2022-11-05T04:07:25.000Z,8.41
2022-11-05T04:12:24.000Z,7.98
2022-11-05T04:17:25.000Z,8.96
2022-11-05T04:22:25.000Z,8.73
2022-11-05T04:27:24.000Z,8.53
2022-11-05T04:32:24.000Z,8.46
2022-11-05T04:37:25.000Z,8.64
2022-11-05T04:42:24.000Z,7.58
2022-11-05T04:47:25.000Z,7.43
2022-11-05T04:52:24.000Z,7.88
2022-11-05T04:57:24.000Z,8.1
2022-11-05T05:02:24.000Z,8.04
2022-11-05T05:07:25.000Z,7.48
2022-11-05T05:12:24.000Z,7.94
2022-11-05T05:17:24.000Z,7.66
2022-11-05T05:22:24.000Z,8.18
2022-11-05T05:27:25.000Z,8.16
2022-11-05T05:32:24.000Z,8.42
2022-11-05T05:37:24.000Z,7.14
2022-11-05T05:42:24.000Z,7.39
2022-11-05T05:47:24.000Z,7.44
2022-11-05T05:52:24.000Z,6.88
2022-11-05T05:57:25.000Z,6.75
2022-11-05T06:02:24.000Z,6.54
2022-11-05T06:07:25.000Z,6.19
2022-11-05T06:12:24.000Z,6.38
2022-11-05T06:17:24.000Z,8.04
2022-11-05T06:22:25.000Z,7.89
2022-11-05T06:27:25.000Z,7.7
2022-11-05T06:32:25.000Z,7.79
2022-11-05T06:37:25.000Z,8.01
2022-11-05T06:42:25.000Z,11.39
2022-11-05T06:47:24.000Z,8.84
2022-11-05T06:52:24.000Z,8.88
2022-11-05T06:57:24.000Z,11.38
2022-11-05T07:02:24.000Z,13.95
2022-11-05T07:07:25.000Z,13.4
2022-11-05T07:12:24.000Z,10.75
2022-11-05T07:17:25.000Z,7.67
2022-11-05T07:22:25.000Z,7.54
2022-11-05T07:27:24.000Z,7.88
2022-11-05T07:32:25.000Z,6.81
2022-11-05T07:37:25.000Z,7.32
2022-11-05T07:42:25.000Z,6.91
2022-11-05T07:47:25.000Z,6.25
2022-11-05T07:52:24.000Z,8.1
2022-11-05T07:57:24.000Z,6.15
2022-11-05T08:02:24.000Z,6.46
2022-11-05T08:07:24.000Z,6.78
2022-11-05T08:12:24.000Z,8.28
2022-11-05T08:17:25.000Z,6.25
2022-11-05T08:22:24.000Z,6.84
2022-11-05T08:27:24.000Z,7.25
2022-11-05T08:32:24.000Z,7.31
2022-11-05T08:37:24.000Z,7.44
2022-11-05T08:42:24.000Z,7.86
2022-11-05T08:52:25.000Z,7.25
2022-11-05T08:57:24.000Z,7.84
2022-11-05T09:02:25.000Z,8.38
2022-11-05T09:07:24.000Z,8.63
2022-11-05T09:12:25.000Z,8.79
2022-11-05T09:17:25.000Z,8.11
2022-11-05T09:22:25.000Z,9.02
2022-11-05T09:27:24.000Z,7.82
2022-11-05T09:32:25.000Z,7.49
2022-11-05T09:37:24.000Z,6.96
2022-11-05T09:42:24.000Z,7.56
2022-11-05T09:47:24.000Z,7.28
2022-11-05T09:52:25.000Z,7.02
2022-11-05T09:57:25.000Z,8.95
2022-11-05T10:02:25.000Z,8.87
2022-11-05T10:07:24.000Z,8.33
2022-11-05T10:12:25.000Z,9.46
2022-11-05T10:17:25.000Z,8.43
2022-11-05T10:22:24.000Z,8.19
2022-11-05T10:27:25.000Z,8.08
2022-11-05T10:32:24.000Z,8.47
2022-11-05T10:37:25.000Z,8.98
2022-11-05T10:42:24.000Z,8.35
2022-11-05T10:47:24.000Z,8.02
2022-11-05T10:52:24.000Z,9.13
2022-11-05T10:57:25.000Z,9.35
2022-11-05T11:02:24.000Z,9.63
2022-11-05T11:07:24.000Z,7.49
2022-11-05T11:12:24.000Z,8.55
2022-11-05T11:17:25.000Z,7.79
2022-11-05T11:22:24.000Z,7.38
2022-11-05T11:27:24.000Z,7.18
2022-11-05T11:32:24.000Z,8.62
2022-11-05T11:37:24.000Z,8.12
2022-11-05T11:42:25.000Z,8.49
2022-11-05T11:47:24.000Z,9.53
2022-11-05T11:52:25.000Z,8.34
2022-11-05T11:57:24.000Z,8.19
2022-11-05T12:02:24.000Z,9.78
2022-11-05T12:07:25.000Z,9.19
2022-11-05T12:12:25.000Z,12.59
2022-11-05T12:22:24.000Z,10.12
2022-11-05T12:32:25.000Z,10.25
2022-11-05T12:37:25.000Z,10.23
2022-11-05T12:42:25.000Z,11.31
2022-11-05T12:47:24.000Z,11.12
2022-11-05T12:52:24.000Z,10.65
2022-11-05T12:57:24.000Z,10.46
2022-11-05T13:02:24.000Z,10.73
2022-11-05T13:07:24.000Z,12.27
2022-11-05T13:12:24.000Z,11.97
2022-11-05T13:17:24.000Z,11.1
2022-11-05T13:22:24.000Z,11.19
2022-11-05T13:27:25.000Z,11.01
2022-11-05T13:32:24.000Z,11.93
2022-11-05T13:37:24.000Z,11.53
2022-11-05T13:42:24.000Z,10.96
2022-11-05T13:47:25.000Z,11.91
2022-11-05T13:52:25.000Z,13.37
2022-11-05T13:57:24.000Z,12.19
2022-11-05T14:02:24.000Z,11.94
2022-11-05T14:07:25.000Z,11.86
2022-11-05T14:12:24.000Z,11.18
2022-11-05T14:17:25.000Z,10.98
2022-11-05T14:22:24.000Z,11.45
2022-11-05T14:27:24.000Z,11.61
2022-11-05T14:32:24.000Z,12.85
2022-11-05T14:37:25.000Z,12.09
2022-11-05T14:42:24.000Z,12.13
2022-11-05T14:47:24.000Z,13.04
2022-11-05T14:52:25.000Z,14.93
2022-11-05T14:57:24.000Z,15.1
2022-11-05T15:02:25.000Z,13.09
2022-11-05T15:07:24.000Z,13.16
2022-11-05T15:12:24.000Z,14.07
2022-11-05T15:17:24.000Z,14.07
2022-11-05T15:22:24.000Z,14.28
2022-11-05T15:27:25.000Z,15.15
2022-11-05T15:32:24.000Z,14.43
2022-11-05T15:37:25.000Z,14.1
2022-11-05T15:42:25.000Z,14.23
2022-11-05T15:47:24.000Z,13.72
2022-11-05T15:52:24.000Z,15.73
2022-11-05T15:57:24.000Z,14.65
2022-11-05T16:02:24.000Z,14.2
2022-11-05T16:07:24.000Z,14.15
2022-11-05T16:12:24.000Z,15.31
2022-11-05T16:17:24.000Z,14.75
2022-11-05T16:22:24.000Z,15.07
2022-11-05T16:27:25.000Z,16.19
2022-11-05T16:32:24.000Z,15.17
2022-11-05T16:37:24.000Z,14.29
2022-11-05T16:42:25.000Z,15.41
2022-11-05T16:47:25.000Z,14.12
2022-11-05T16:52:24.000Z,14.25
2022-11-05T16:57:24.000Z,14.78
2022-11-05T17:02:24.000Z,14.64
2022-11-05T17:07:25.000Z,15.79
2022-11-05T17:12:25.000Z,16.18
2022-11-05T17:17:24.000Z,16.05
2022-11-05T17:22:25.000Z,15.04
2022-11-05T17:27:24.000Z,15.09
2022-11-05T17:32:24.000Z,14.4
2022-11-05T17:37:25.000Z,14.31
2022-11-05T17:42:24.000Z,16.64
2022-11-05T17:47:24.000Z,15.47
2022-11-05T17:52:24.000Z,15.95
2022-11-05T17:57:25.000Z,14.95
2022-11-05T18:02:24.000Z,15.34
2022-11-05T18:07:25.000Z,16.55
2022-11-05T18:12:24.000Z,16.24
2022-11-05T18:17:25.000Z,15.39
2022-11-05T18:22:24.000Z,16.51
2022-11-05T18:27:25.000Z,16.47
2022-11-05T18:32:25.000Z,16.08
2022-11-05T18:37:24.000Z,14.76
2022-11-05T18:42:24.000Z,15.78
2022-11-05T18:47:25.000Z,14.99
2022-11-05T18:52:24.000Z,13.33
2022-11-05T18:57:24.000Z,12.8
2022-11-05T19:02:24.000Z,13.01
2022-11-05T19:07:24.000Z,13.43
2022-11-05T19:12:25.000Z,14.08
2022-11-05T19:17:24.000Z,13.7
2022-11-05T19:22:24.000Z,14.57
2022-11-05T19:27:24.000Z,13.68
2022-11-05T19:32:25.000Z,12.97
2022-11-05T19:37:25.000Z,12.68
2022-11-05T19:42:24.000Z,13.18
2022-11-05T19:47:24.000Z,12.73
2022-11-05T19:52:24.000Z,13.01
2022-11-05T19:57:24.000Z,12.44
2022-11-05T20:02:24.000Z,12.36
2022-11-05T20:07:24.000Z,12.8
2022-11-05T20:12:25.000Z,12.2
2022-11-05T20:17:24.000Z,13.36
2022-11-05T20:22:24.000Z,12.65
2022-11-05T20:27:24.000Z,13.53
2022-11-05T20:32:24.000Z,13.33
2022-11-05T20:37:24.000Z,14.87
2022-11-05T20:42:24.000Z,13.98
2022-11-05T20:47:25.000Z,16.68
2022-11-05T20:52:24.000Z,18.73
2022-11-05T20:57:25.000Z,16
2022-11-05T21:02:24.000Z,15.19
2022-11-05T21:07:24.000Z,13.79
2022-11-05T21:12:25.000Z,13.36
2022-11-05T21:17:24.000Z,13.84
2022-11-05T21:22:25.000Z,23.11
2022-11-05T21:27:24.000Z,15.66
2022-11-05T21:32:25.000Z,15.42
2022-11-05T21:42:25.000Z,15.23
2022-11-05T21:47:24.000Z,16.8
2022-11-05T21:52:25.000Z,17.43
2022-11-05T21:57:25.000Z,15.94
2022-11-05T22:02:24.000Z,16.29
2022-11-05T22:07:25.000Z,15.11
2022-11-05T22:12:24.000Z,16.44
2022-11-05T22:17:24.000Z,16.54
2022-11-05T22:22:24.000Z,16.74
2022-11-05T22:27:24.000Z,14.98
2022-11-05T22:32:25.000Z,16.18
2022-11-05T22:37:24.000Z,16.73
2022-11-05T22:42:25.000Z,16.44
2022-11-05T22:47:24.000Z,16.52
2022-11-05T22:52:25.000Z,15.55
2022-11-05T22:57:25.000Z,16.12
2022-11-05T23:02:24.000Z,15.53
2022-11-05T23:07:25.000Z,15.98
2022-11-05T23:12:25.000Z,15.26
2022-11-05T23:17:24.000Z,15.88
2022-11-05T23:22:25.000Z,17.56
2022-11-05T23:27:24.000Z,20.58
2022-11-05T23:32:25.000Z,15.97
2022-11-05T23:37:24.000Z,15.53
2022-11-05T23:42:25.000Z,15.96
2022-11-05T23:47:25.000Z,15.91
2022-11-05T23:52:25.000Z,17.78
2022-11-05T23:57:24.000Z,17.52
